Time;durP1;ratioP1;P1;durP2;ratioP2;P2;SDS_P1;SDS_P2;PMS_P1;PMS_P2;Temp;Humidity;BMP_temperature;BMP_pressure;BME280_temperature;BME280_humidity;BME280_pressure;Samples;Min_cycle;Max_cycle;Signal;HPM_P1;HPM_P2
2023/10/16 00:01:42;;;;;;;3.30;0.40;;;;;;;;;;5066927;28;20412;-79
2023/10/16 00:04:11;;;;;;;2.17;0.40;;;;;;;;;;5063047;28;20469;-82
2023/10/16 00:06:36;;;;;;;2.20;0.20;;;;;;;;;;5044560;28;20428;-76
2023/10/16 00:09:15;;;;;;;5.83;0.50;;;;;;;;;;5061196;28;20500;-84
2023/10/16 00:11:41;;;;;;;4.63;0.50;;;;;;;;;;5063830;28;20507;-78
2023/10/16 00:14:18;;;;;;;4.90;0.50;;;;;;;;;;5060755;28;20444;-83
2023/10/16 00:16:44;;;;;;;3.90;0.33;;;;;;;;;;5053303;28;20886;-84
2023/10/16 00:19:11;;;;;;;3.87;0.40;;;;;;;;;;5060247;28;20473;-80
2023/10/16 00:21:43;;;;;;;4.63;0.47;;;;;;;;;;5073079;28;20423;-82
2023/10/16 00:24:10;;;;;;;1.53;0.20;;;;;;;;;;5057166;28;20427;-83
2023/10/16 00:26:36;;;;;;;2.10;0.20;;;;;;;;;;5058018;28;20420;-83
2023/10/16 00:29:17;;;;;;;2.60;0.30;;;;;;;;;;5072680;28;20818;-81
2023/10/16 00:31:43;;;;;;;2.83;0.43;;;;;;;;;;5073006;28;20468;-81
2023/10/16 00:34:09;;;;;;;2.83;0.20;;;;;;;;;;5073048;28;20436;-78
2023/10/16 00:36:35;;;;;;;4.40;1.00;;;;;;;;;;5072947;28;20418;-81
2023/10/16 00:39:26;;;;;;;2.60;0.47;;;;;;;;;;5072951;28;20440;-81
2023/10/16 00:41:50;;;;;;;6.90;0.40;;;;;;;;;;5072325;28;20485;-79
2023/10/16 00:44:18;;;;;;;4.23;0.30;;;;;;;;;;5072967;28;20411;-81
2023/10/16 00:46:48;;;;;;;3.27;0.40;;;;;;;;;;5072727;28;20930;-77
2023/10/16 00:49:18;;;;;;;3.23;0.50;;;;;;;;;;5072958;28;20512;-82
2023/10/16 00:51:45;;;;;;;5.27;0.47;;;;;;;;;;5072862;28;20554;-82
2023/10/16 00:54:18;;;;;;;3.10;0.27;;;;;;;;;;5072844;28;20408;-82
2023/10/16 00:56:51;;;;;;;0.80;0.30;;;;;;;;;;5072854;28;20415;-82
2023/10/16 00:59:17;;;;;;;2.90;0.20;;;;;;;;;;5076859;28;20407;-81
2023/10/16 01:01:46;;;;;;;5.17;0.30;;;;;;;;;;5076796;28;20417;-81
2023/10/16 01:04:13;;;;;;;1.63;0.30;;;;;;;;;;5076793;28;20492;-81
2023/10/16 01:06:41;;;;;;;5.23;0.40;;;;;;;;;;5076831;28;20503;-81
2023/10/16 01:09:22;;;;;;;3.27;0.30;;;;;;;;;;5076762;28;20412;-82
2023/10/16 01:11:48;;;;;;;1.90;0.20;;;;;;;;;;5076256;28;20472;-81
2023/10/16 01:14:14;;;;;;;4.00;0.90;;;;;;;;;;5074730;28;20405;-80
2023/10/16 01:16:40;;;;;;;2.93;0.83;;;;;;;;;;5056565;28;20478;-81
2023/10/16 01:19:09;;;;;;;3.97;0.30;;;;;;;;;;5056577;28;20432;-81
2023/10/16 01:21:35;;;;;;;4.13;0.30;;;;;;;;;;5056453;28;20421;-81
2023/10/16 01:24:11;;;;;;;1.20;0.30;;;;;;;;;;5056413;28;20421;-84
2023/10/16 01:26:37;;;;;;;2.17;0.70;;;;;;;;;;5056401;28;20926;-77
2023/10/16 01:29:07;;;;;;;3.40;0.30;;;;;;;;;;5056013;28;20417;-85
2023/10/16 01:31:33;;;;;;;5.77;0.40;;;;;;;;;;5056230;28;20476;-84
2023/10/16 01:33:59;;;;;;;3.43;0.40;;;;;;;;;;5056275;28;20406;-85
2023/10/16 01:36:25;;;;;;;4.70;0.93;;;;;;;;;;5056261;28;20470;-85
2023/10/16 01:38:51;;;;;;;2.67;0.30;;;;;;;;;;5056231;28;20409;-84
2023/10/16 01:41:18;;;;;;;2.10;0.20;;;;;;;;;;5056143;28;20406;-78
2023/10/16 01:43:44;;;;;;;3.20;0.57;;;;;;;;;;5055669;28;20409;-77
2023/10/16 01:46:12;;;;;;;4.50;0.70;;;;;;;;;;5066747;28;20438;-75
2023/10/16 01:48:44;;;;;;;2.63;0.37;;;;;;;;;;5075737;28;20534;-78
2023/10/16 01:51:10;;;;;;;2.47;0.30;;;;;;;;;;5075773;28;20469;-79
2023/10/16 01:53:37;;;;;;;3.47;0.40;;;;;;;;;;5075827;28;20901;-84
2023/10/16 01:56:12;;;;;;;3.80;0.60;;;;;;;;;;5075714;28;20413;-84
2023/10/16 01:58:38;;;;;;;4.47;0.30;;;;;;;;;;5057882;28;20764;-82
2023/10/16 02:01:04;;;;;;;4.87;0.50;;;;;;;;;;5075678;28;20413;-75
2023/10/16 02:03:30;;;;;;;4.60;0.33;;;;;;;;;;5075765;28;20773;-84
2023/10/16 02:05:56;;;;;;;3.93;0.40;;;;;;;;;;5075625;28;20431;-75
2023/10/16 02:08:23;;;;;;;4.40;0.30;;;;;;;;;;5074275;28;20471;-75
2023/10/16 02:10:50;;;;;;;2.43;0.50;;;;;;;;;;5075438;28;20971;-82
2023/10/16 02:13:16;;;;;;;2.43;0.40;;;;;;;;;;5075227;28;20417;-78
2023/10/16 02:15:42;;;;;;;4.30;0.40;;;;;;;;;;5075427;28;20401;-81
2023/10/16 02:18:18;;;;;;;1.13;0.20;;;;;;;;;;5075461;28;20440;-81
2023/10/16 02:20:45;;;;;;;1.63;0.20;;;;;;;;;;5075424;28;20871;-78
2023/10/16 02:23:11;;;;;;;0.93;0.30;;;;;;;;;;5075317;28;20410;-82
2023/10/16 02:25:37;;;;;;;5.90;0.53;;;;;;;;;;5075306;28;20778;-83
2023/10/16 02:28:07;;;;;;;2.83;0.43;;;;;;;;;;5075002;28;20732;-83
2023/10/16 02:30:35;;;;;;;1.53;0.77;;;;;;;;;;5073771;28;20406;-81
2023/10/16 02:36:00;;;;;;;2.80;0.97;;;;;;;;;;5041002;28;20410;-82
2023/10/16 02:38:29;;;;;;;2.00;0.30;;;;;;;;;;5073798;28;20778;-83
2023/10/16 02:41:00;;;;;;;2.00;0.27;;;;;;;;;;5075007;28;20440;-84
2023/10/16 02:43:27;;;;;;;3.50;0.30;;;;;;;;;;5074631;28;20491;-79
2023/10/16 02:45:53;;;;;;;1.80;0.23;;;;;;;;;;5074895;28;20410;-75
2023/10/16 02:48:20;;;;;;;3.10;0.30;;;;;;;;;;5074690;28;20457;-82
2023/10/16 02:50:56;;;;;;;2.83;0.40;;;;;;;;;;5073495;28;20464;-80
2023/10/16 02:53:24;;;;;;;3.90;0.30;;;;;;;;;;5074766;28;20906;-81
2023/10/16 02:55:53;;;;;;;3.73;0.33;;;;;;;;;;5074596;28;20406;-76
2023/10/16 02:58:22;;;;;;;5.10;0.47;;;;;;;;;;5068497;28;20482;-80
2023/10/16 03:00:53;;;;;;;2.77;0.30;;;;;;;;;;5065491;28;20425;-76
2023/10/16 03:03:19;;;;;;;2.43;0.40;;;;;;;;;;5054057;28;20413;-81
2023/10/16 03:05:45;;;;;;;1.17;0.30;;;;;;;;;;5052916;28;21027;-75
2023/10/16 03:08:13;;;;;;;2.53;0.23;;;;;;;;;;5036371;28;20500;-81
2023/10/16 03:10:40;;;;;;;4.47;0.47;;;;;;;;;;5054336;28;20468;-80
2023/10/16 03:13:06;;;;;;;2.17;0.67;;;;;;;;;;5036161;28;20465;-75
2023/10/16 03:15:42;;;;;;;2.70;0.50;;;;;;;;;;5054262;28;20449;-82
2023/10/16 03:18:16;;;;;;;7.10;0.77;;;;;;;;;;5054292;28;20416;-75
2023/10/16 03:20:44;;;;;;;5.77;0.40;;;;;;;;;;5053761;28;20398;-79
2023/10/16 03:23:12;;;;;;;2.50;0.50;;;;;;;;;;5054088;28;20500;-80
2023/10/16 03:28:07;;;;;;;3.23;0.50;;;;;;;;;;5053775;28;20926;-80
2023/10/16 03:30:33;;;;;;;3.23;2.20;;;;;;;;;;5036058;28;20895;-82
2023/10/16 03:32:59;;;;;;;2.70;0.37;;;;;;;;;;5053934;28;20413;-77
2023/10/16 03:35:26;;;;;;;6.97;0.60;;;;;;;;;;5053916;28;20753;-75
2023/10/16 03:37:55;;;;;;;3.53;0.27;;;;;;;;;;5053928;28;20425;-80
2023/10/16 03:40:24;;;;;;;3.73;0.53;;;;;;;;;;5053842;28;20397;-74
2023/10/16 03:42:50;;;;;;;1.67;0.40;;;;;;;;;;5053454;28;20832;-81
2023/10/16 03:45:20;;;;;;;3.13;0.33;;;;;;;;;;5053734;28;20429;-83
2023/10/16 03:47:49;;;;;;;2.20;0.57;;;;;;;;;;5053565;28;20466;-79
2023/10/16 03:50:16;;;;;;;4.30;0.80;;;;;;;;;;5053689;28;20757;-78
2023/10/16 03:52:42;;;;;;;7.20;0.77;;;;;;;;;;5053564;28;20477;-81
2023/10/16 03:55:27;;;;;;;2.10;0.60;;;;;;;;;;5053492;28;20871;-75
2023/10/16 03:57:55;;;;;;;4.83;0.50;;;;;;;;;;5035362;28;20496;-79
2023/10/16 04:00:33;;;;;;;2.67;0.47;;;;;;;;;;5035620;28;20410;-75
2023/10/16 04:02:59;;;;;;;3.93;0.60;;;;;;;;;;5053475;28;20414;-75
2023/10/16 04:08:10;;;;;;;0.80;0.43;;;;;;;;;;5053443;28;20503;-76
2023/10/16 04:10:40;;;;;;;4.77;0.40;;;;;;;;;;5053224;28;20397;-78
2023/10/16 04:13:06;;;;;;;2.73;0.30;;;;;;;;;;5052959;28;20448;-82
2023/10/16 04:18:27;;;;;;;2.10;0.47;;;;;;;;;;5053256;28;20417;-76
2023/10/16 04:20:56;;;;;;;1.20;0.30;;;;;;;;;;5052926;28;20422;-74
2023/10/16 04:37:29;;;;;;;3.67;0.60;;;;;;;;;;5053012;28;20411;-81
2023/10/16 04:50:29;;;;;;;4.87;0.83;;;;;;;;;;5052728;28;21084;-81
2023/10/16 05:00:54;;;;;;;2.07;0.50;;;;;;;;;;5052775;28;20414;-80
2023/10/16 05:03:24;;;;;;;3.70;0.50;;;;;;;;;;5052773;28;20409;-83
2023/10/16 05:06:03;;;;;;;2.20;0.63;;;;;;;;;;5052668;28;20419;-84
2023/10/16 05:13:55;;;;;;;6.80;1.37;;;;;;;;;;5072718;28;20508;-84
2023/10/16 05:16:30;;;;;;;6.47;0.40;;;;;;;;;;5072634;28;20934;-81
2023/10/16 06:14:13;;;;;;;5.10;0.87;;;;;;;;;;5075761;28;21041;-81
2023/10/16 06:16:46;;;;;;;4.17;1.50;;;;;;;;;;5075452;28;20856;-79
2023/10/16 06:19:17;;;;;;;6.27;0.77;;;;;;;;;;5075474;28;20400;-81
2023/10/16 06:21:50;;;;;;;2.43;1.10;;;;;;;;;;5075421;28;20732;-81
2023/10/16 06:24:28;;;;;;;2.40;0.50;;;;;;;;;;5075303;28;20766;-81
2023/10/16 06:26:59;;;;;;;3.37;1.30;;;;;;;;;;5074937;28;20399;-75
2023/10/16 06:29:26;;;;;;;5.17;1.23;;;;;;;;;;5075109;28;20409;-75
2023/10/16 06:31:53;;;;;;;5.23;1.10;;;;;;;;;;5075012;28;20824;-84
2023/10/16 06:34:19;;;;;;;3.37;1.27;;;;;;;;;;5075311;28;20514;-86
2023/10/16 06:36:45;;;;;;;3.97;1.03;;;;;;;;;;5075154;28;20411;-83
2023/10/16 06:39:27;;;;;;;3.50;1.00;;;;;;;;;;5075145;28;20736;-86
2023/10/16 06:41:54;;;;;;;2.53;1.47;;;;;;;;;;5074762;28;20420;-85
2023/10/16 06:44:21;;;;;;;1.50;0.73;;;;;;;;;;5075003;28;20421;-86
2023/10/16 06:46:49;;;;;;;1.97;0.90;;;;;;;;;;5074756;28;20487;-79
2023/10/16 06:49:15;;;;;;;2.97;1.03;;;;;;;;;;5074851;28;20460;-74
2023/10/16 06:51:43;;;;;;;4.80;1.43;;;;;;;;;;5074864;28;20462;-81
2023/10/16 06:54:09;;;;;;;1.97;0.53;;;;;;;;;;5074658;28;20399;-75
2023/10/16 06:56:38;;;;;;;3.17;1.37;;;;;;;;;;5073723;28;20469;-85
2023/10/16 06:59:04;;;;;;;3.20;0.83;;;;;;;;;;5075162;28;20460;-75
2023/10/16 07:01:34;;;;;;;1.60;0.90;;;;;;;;;;5056282;28;20918;-87
2023/10/16 07:04:00;;;;;;;3.80;1.63;;;;;;;;;;5060518;28;20420;-83
2023/10/16 07:06:33;;;;;;;3.37;0.80;;;;;;;;;;5067394;28;20416;-84
2023/10/16 07:09:06;;;;;;;4.50;0.93;;;;;;;;;;5061270;28;20422;-85
2023/10/16 07:11:31;;;;;;;2.93;1.30;;;;;;;;;;5054111;28;20475;-85
2023/10/16 07:13:58;;;;;;;1.83;0.53;;;;;;;;;;5054389;28;20404;-82
2023/10/16 07:16:25;;;;;;;3.00;0.67;;;;;;;;;;5054299;28;20409;-86
2023/10/16 07:18:54;;;;;;;3.13;0.67;;;;;;;;;;5054295;28;20760;-79
2023/10/16 07:21:20;;;;;;;3.53;0.70;;;;;;;;;;5054114;28;20409;-76
2023/10/16 07:23:46;;;;;;;3.40;1.10;;;;;;;;;;5054138;28;20414;-77
2023/10/16 07:26:19;;;;;;;3.50;1.20;;;;;;;;;;5053763;28;20409;-77
2023/10/16 07:28:48;;;;;;;2.50;0.70;;;;;;;;;;5054105;28;20411;-86
2023/10/16 07:31:16;;;;;;;5.97;1.20;;;;;;;;;;5053887;28;20456;-76
2023/10/16 07:33:42;;;;;;;2.90;0.60;;;;;;;;;;5054073;28;20463;-79
2023/10/16 07:36:11;;;;;;;4.20;1.10;;;;;;;;;;5054027;28;20804;-76
2023/10/16 07:38:38;;;;;;;3.63;0.93;;;;;;;;;;5053899;28;20426;-76
2023/10/16 07:41:04;;;;;;;3.33;0.67;;;;;;;;;;5053489;28;20436;-78
2023/10/16 07:43:33;;;;;;;2.77;0.97;;;;;;;;;;5053852;28;20763;-82
2023/10/16 07:48:37;;;;;;;3.33;0.80;;;;;;;;;;5053790;28;20497;-82
2023/10/16 07:51:07;;;;;;;3.07;0.40;;;;;;;;;;5053562;28;20448;-80
2023/10/16 07:53:37;;;;;;;4.80;0.57;;;;;;;;;;5053638;28;20412;-77
2023/10/16 07:56:03;;;;;;;0.83;0.43;;;;;;;;;;5053388;28;20465;-85
2023/10/16 07:58:33;;;;;;;2.27;0.70;;;;;;;;;;5053539;28;20479;-86
2023/10/16 08:03:36;;;;;;;1.03;0.50;;;;;;;;;;5053631;28;20426;-86
2023/10/16 08:06:05;;;;;;;4.20;1.20;;;;;;;;;;5053354;28;20956;-85
2023/10/16 08:08:37;;;;;;;2.60;0.40;;;;;;;;;;5053486;28;20417;-87
2023/10/16 08:11:12;;;;;;;1.77;0.67;;;;;;;;;;5052986;28;20518;-83
2023/10/16 08:13:46;;;;;;;4.50;0.77;;;;;;;;;;5053503;28;20468;-86
2023/10/16 08:16:12;;;;;;;1.87;0.30;;;;;;;;;;5053233;28;20454;-76
2023/10/16 08:18:40;;;;;;;2.10;0.63;;;;;;;;;;5053333;28;20413;-81
2023/10/16 08:21:06;;;;;;;3.37;0.50;;;;;;;;;;5053255;28;20421;-85
2023/10/16 08:23:35;;;;;;;5.80;0.93;;;;;;;;;;5053266;28;20436;-87
2023/10/16 08:26:05;;;;;;;4.93;0.20;;;;;;;;;;5052829;28;20577;-76
2023/10/16 08:28:44;;;;;;;2.40;0.40;;;;;;;;;;5053151;28;20470;-76
2023/10/16 08:31:22;;;;;;;2.10;0.80;;;;;;;;;;5035184;28;20539;-85
2023/10/16 08:33:49;;;;;;;1.27;0.30;;;;;;;;;;5035200;28;20576;-87
2023/10/16 08:36:18;;;;;;;1.70;0.63;;;;;;;;;;5053145;28;20545;-79
2023/10/16 08:38:52;;;;;;;2.10;0.30;;;;;;;;;;5053176;28;20787;-87
2023/10/16 08:41:21;;;;;;;2.40;0.77;;;;;;;;;;5052699;28;20410;-86
2023/10/16 08:43:54;;;;;;;2.00;0.43;;;;;;;;;;5052884;28;20510;-85
2023/10/16 08:46:34;;;;;;;3.90;0.40;;;;;;;;;;5053049;28;20418;-84
2023/10/16 08:49:03;;;;;;;2.73;0.93;;;;;;;;;;5052894;28;20473;-86
2023/10/16 08:51:30;;;;;;;2.33;0.37;;;;;;;;;;5052826;28;20470;-86
2023/10/16 08:54:00;;;;;;;1.97;0.30;;;;;;;;;;5052861;28;20415;-87
2023/10/16 08:56:26;;;;;;;3.93;0.70;;;;;;;;;;5052586;28;20428;-85
2023/10/16 08:58:55;;;;;;;2.57;0.57;;;;;;;;;;5052880;28;20968;-76
2023/10/16 09:01:23;;;;;;;2.87;0.63;;;;;;;;;;5052890;28;20404;-77
2023/10/16 09:03:54;;;;;;;1.27;0.50;;;;;;;;;;5052690;28;20415;-87
2023/10/16 09:06:23;;;;;;;2.13;0.40;;;;;;;;;;5052724;28;20402;-84
2023/10/16 09:08:54;;;;;;;1.10;0.47;;;;;;;;;;5052816;28;20411;-76
2023/10/16 09:11:20;;;;;;;3.90;0.30;;;;;;;;;;5052276;28;20449;-87
2023/10/16 09:13:51;;;;;;;3.87;1.07;;;;;;;;;;5052755;28;20780;-80
2023/10/16 09:16:23;;;;;;;5.57;0.90;;;;;;;;;;5052764;28;20411;-80
2023/10/16 09:18:53;;;;;;;1.80;0.60;;;;;;;;;;5036659;28;20567;-86
2023/10/16 09:21:27;;;;;;;3.10;0.50;;;;;;;;;;5056626;28;20761;-87
2023/10/16 09:23:58;;;;;;;3.83;0.83;;;;;;;;;;5038690;28;20523;-86
2023/10/16 09:26:25;;;;;;;5.27;1.20;;;;;;;;;;5056236;28;20768;-80
2023/10/16 09:28:54;;;;;;;3.53;0.80;;;;;;;;;;5056454;28;20459;-79
2023/10/16 09:31:20;;;;;;;2.33;0.80;;;;;;;;;;5056289;28;20457;-83
2023/10/16 09:33:49;;;;;;;2.10;0.20;;;;;;;;;;5056235;28;20422;-87
2023/10/16 09:36:17;;;;;;;4.30;0.50;;;;;;;;;;5056385;28;20409;-86
2023/10/16 09:38:44;;;;;;;1.37;0.47;;;;;;;;;;5056239;28;20433;-85
2023/10/16 09:49:16;;;;;;;1.70;0.50;;;;;;;;;;5056084;28;20765;-78
2023/10/16 09:51:44;;;;;;;3.50;0.30;;;;;;;;;;5055983;28;20830;-82
2023/10/16 09:54:11;;;;;;;5.50;0.60;;;;;;;;;;5056027;28;20438;-87
2023/10/16 09:56:39;;;;;;;4.30;0.60;;;;;;;;;;5055538;28;20411;-84
2023/10/16 09:59:22;;;;;;;3.83;0.37;;;;;;;;;;5055871;28;20416;-87
2023/10/16 10:01:51;;;;;;;1.33;0.50;;;;;;;;;;5038411;28;20435;-87
2023/10/16 10:04:19;;;;;;;1.80;0.40;;;;;;;;;;5055749;28;20415;-78
2023/10/16 10:06:46;;;;;;;1.23;0.57;;;;;;;;;;5055376;28;20424;-76
2023/10/16 10:11:57;;;;;;;3.23;0.40;;;;;;;;;;5054614;28;20478;-82
2023/10/16 10:14:39;;;;;;;2.40;0.20;;;;;;;;;;5055295;28;20412;-86
2023/10/16 10:17:09;;;;;;;2.03;0.30;;;;;;;;;;5055128;28;20422;-87
2023/10/16 10:19:39;;;;;;;2.40;0.43;;;;;;;;;;5055467;28;20409;-85
2023/10/16 10:22:06;;;;;;;2.60;0.50;;;;;;;;;;5055390;28;20761;-82
2023/10/16 10:24:39;;;;;;;2.20;0.60;;;;;;;;;;5055246;28;20405;-87
2023/10/16 10:27:11;;;;;;;1.43;0.20;;;;;;;;;;5054945;28;20435;-81
2023/10/16 10:29:37;;;;;;;1.37;0.20;;;;;;;;;;5054129;28;20480;-81
2023/10/16 10:32:06;;;;;;;2.27;0.33;;;;;;;;;;5054978;28;20472;-88
2023/10/16 10:34:33;;;;;;;2.53;0.47;;;;;;;;;;5054471;28;20422;-77
2023/10/16 10:36:59;;;;;;;2.87;0.60;;;;;;;;;;5055064;28;20426;-81
2023/10/16 10:42:04;;;;;;;3.70;0.57;;;;;;;;;;5054593;28;20415;-80
2023/10/16 10:44:37;;;;;;;2.87;0.40;;;;;;;;;;5054993;28;20886;-86
2023/10/16 10:47:23;;;;;;;2.87;1.30;;;;;;;;;;5054672;28;20558;-83
2023/10/16 10:49:50;;;;;;;2.90;0.40;;;;;;;;;;5054794;28;21103;-77
2023/10/16 10:52:18;;;;;;;1.93;0.40;;;;;;;;;;5054764;28;20465;-87
2023/10/16 10:54:44;;;;;;;3.70;0.47;;;;;;;;;;5054756;28;20418;-85
2023/10/16 10:57:18;;;;;;;3.10;0.20;;;;;;;;;;5054434;28;20423;-85
2023/10/16 11:00:22;;;;;;;2.20;0.70;;;;;;;;;;5054744;28;20404;-76
2023/10/16 11:05:30;;;;;;;4.23;0.30;;;;;;;;;;5054669;28;20420;-81
2023/10/16 11:10:41;;;;;;;6.77;1.57;;;;;;;;;;5054281;28;20408;-79
2023/10/16 11:13:08;;;;;;;2.67;0.60;;;;;;;;;;5054422;28;20424;-77
2023/10/16 11:15:34;;;;;;;4.50;0.50;;;;;;;;;;5054450;28;20753;-87
2023/10/16 11:18:09;;;;;;;2.10;0.20;;;;;;;;;;5036564;28;20439;-86
2023/10/16 11:20:38;;;;;;;2.93;0.40;;;;;;;;;;5054529;28;20176;-74
2023/10/16 11:23:14;;;;;;;2.60;0.40;;;;;;;;;;5054182;28;20419;-87
2023/10/16 11:25:44;;;;;;;2.43;0.40;;;;;;;;;;5035892;28;20420;-87
2023/10/16 11:28:13;;;;;;;2.87;1.10;;;;;;;;;;5054148;28;20426;-76
2023/10/16 11:30:39;;;;;;;3.40;0.67;;;;;;;;;;5054109;28;20411;-86
2023/10/16 11:33:09;;;;;;;4.83;0.23;;;;;;;;;;5053915;28;20511;-86
2023/10/16 11:35:35;;;;;;;2.63;0.90;;;;;;;;;;5053999;28;20944;-74
2023/10/16 11:38:13;;;;;;;3.10;0.77;;;;;;;;;;5054043;28;20416;-86
2023/10/16 11:40:39;;;;;;;0.97;0.30;;;;;;;;;;5053366;28;20405;-85
2023/10/16 11:43:14;;;;;;;1.87;0.40;;;;;;;;;;5053943;28;20413;-87
2023/10/16 11:45:40;;;;;;;5.23;0.50;;;;;;;;;;5053816;28;20406;-85
2023/10/16 11:48:25;;;;;;;1.43;0.30;;;;;;;;;;5035646;28;20478;-85
2023/10/16 11:50:51;;;;;;;1.17;0.30;;;;;;;;;;5053607;28;20446;-75
2023/10/16 11:53:23;;;;;;;4.10;0.20;;;;;;;;;;5069442;28;20448;-86
2023/10/16 11:55:50;;;;;;;3.53;0.40;;;;;;;;;;5070695;28;20402;-86
2023/10/16 11:58:16;;;;;;;1.63;0.20;;;;;;;;;;5046187;28;20426;-86
2023/10/16 12:00:57;;;;;;;3.87;0.37;;;;;;;;;;5062534;28;20500;-82
2023/10/16 12:03:26;;;;;;;4.60;0.30;;;;;;;;;;5060624;28;20490;-80
2023/10/16 12:05:52;;;;;;;1.70;0.50;;;;;;;;;;5053327;28;20401;-86
2023/10/16 12:08:18;;;;;;;2.00;0.30;;;;;;;;;;5035217;28;20927;-75
2023/10/16 12:10:47;;;;;;;1.70;0.40;;;;;;;;;;5052980;28;20416;-87
2023/10/16 12:13:13;;;;;;;2.00;0.30;;;;;;;;;;5052940;28;20410;-86
2023/10/16 12:15:43;;;;;;;3.50;0.43;;;;;;;;;;5053284;28;20904;-77
2023/10/16 12:18:09;;;;;;;1.23;0.40;;;;;;;;;;5053275;28;20416;-86
2023/10/16 12:20:37;;;;;;;2.13;0.23;;;;;;;;;;5053250;28;20422;-86
2023/10/16 12:23:04;;;;;;;2.40;0.37;;;;;;;;;;5052959;28;20420;-87
2023/10/16 12:25:30;;;;;;;2.77;0.50;;;;;;;;;;5052627;28;20763;-85
2023/10/16 12:27:56;;;;;;;3.10;0.70;;;;;;;;;;5035252;28;20531;-86
2023/10/16 12:30:23;;;;;;;2.80;0.57;;;;;;;;;;5053073;28;20491;-85
2023/10/16 12:32:49;;;;;;;2.93;0.40;;;;;;;;;;5053019;28;20476;-85
2023/10/16 12:35:18;;;;;;;2.20;0.23;;;;;;;;;;5053050;28;20410;-81
2023/10/16 12:37:44;;;;;;;2.40;0.27;;;;;;;;;;5053124;28;20412;-81
2023/10/16 12:40:34;;;;;;;2.10;0.30;;;;;;;;;;5034782;28;20510;-76
2023/10/16 12:43:00;;;;;;;4.30;0.33;;;;;;;;;;5053041;28;20391;-77
2023/10/16 12:45:27;;;;;;;4.20;0.30;;;;;;;;;;5052953;28;20442;-76
2023/10/16 12:47:57;;;;;;;0.53;0.20;;;;;;;;;;5052617;28;20453;-85
2023/10/16 12:50:27;;;;;;;2.27;0.40;;;;;;;;;;5052975;28;20443;-86
2023/10/16 12:52:57;;;;;;;1.17;0.20;;;;;;;;;;5053089;28;20854;-86
2023/10/16 12:55:23;;;;;;;3.90;0.33;;;;;;;;;;5056729;28;20413;-85
2023/10/16 12:57:53;;;;;;;5.93;0.67;;;;;;;;;;5057026;28;20462;-87
2023/10/16 13:00:20;;;;;;;1.90;0.63;;;;;;;;;;5056871;28;20418;-77
2023/10/16 13:02:47;;;;;;;0.93;0.30;;;;;;;;;;5056860;28;20902;-77
2023/10/16 13:05:16;;;;;;;3.03;0.33;;;;;;;;;;5039220;28;20915;-76
2023/10/16 13:07:47;;;;;;;2.30;0.50;;;;;;;;;;5056739;28;20418;-80
2023/10/16 13:10:14;;;;;;;4.87;0.60;;;;;;;;;;5056363;28;20407;-77
2023/10/16 13:12:41;;;;;;;1.63;0.30;;;;;;;;;;5056695;28;20576;-77
2023/10/16 13:15:08;;;;;;;1.73;0.30;;;;;;;;;;5038767;28;20909;-78
2023/10/16 13:17:34;;;;;;;4.73;0.37;;;;;;;;;;5056617;28;20410;-76
2023/10/16 13:20:00;;;;;;;3.97;0.43;;;;;;;;;;5056534;28;20468;-78
2023/10/16 13:22:26;;;;;;;2.60;0.40;;;;;;;;;;5056554;28;20187;-76
2023/10/16 13:24:54;;;;;;;1.13;0.37;;;;;;;;;;5038195;28;20413;-77
2023/10/16 13:27:21;;;;;;;2.70;0.70;;;;;;;;;;5056379;28;20417;-76
2023/10/16 13:29:47;;;;;;;1.87;0.20;;;;;;;;;;5056253;28;20427;-78
2023/10/16 13:32:13;;;;;;;2.87;0.47;;;;;;;;;;5056244;28;20464;-75
2023/10/16 13:34:39;;;;;;;2.70;0.43;;;;;;;;;;5056197;28;20424;-77
2023/10/16 13:37:08;;;;;;;3.30;0.40;;;;;;;;;;5056194;28;20812;-76
2023/10/16 13:39:41;;;;;;;0.70;0.30;;;;;;;;;;5038250;28;20886;-76
2023/10/16 13:42:08;;;;;;;2.70;0.40;;;;;;;;;;5056183;28;20427;-76
2023/10/16 13:44:35;;;;;;;2.60;0.73;;;;;;;;;;5056101;28;20410;-75
2023/10/16 13:47:05;;;;;;;2.00;0.27;;;;;;;;;;5038016;28;20475;-75
2023/10/16 13:49:30;;;;;;;2.33;0.30;;;;;;;;;;5055957;28;20404;-75
2023/10/16 13:51:57;;;;;;;3.33;0.50;;;;;;;;;;5055815;28;20451;-75
2023/10/16 13:54:24;;;;;;;4.57;0.40;;;;;;;;;;5037976;28;20416;-76
2023/10/16 13:56:50;;;;;;;3.40;0.43;;;;;;;;;;5055409;28;20402;-75
2023/10/16 13:59:18;;;;;;;3.10;0.20;;;;;;;;;;5055826;28;20507;-75
2023/10/16 14:01:45;;;;;;;4.00;0.50;;;;;;;;;;5037883;28;20875;-84
2023/10/16 14:04:13;;;;;;;2.10;0.67;;;;;;;;;;5055454;28;20409;-78
2023/10/16 14:06:40;;;;;;;2.27;0.30;;;;;;;;;;5055581;28;20503;-85
2023/10/16 14:09:11;;;;;;;5.53;0.57;;;;;;;;;;5055632;28;20396;-77
2023/10/16 14:11:47;;;;;;;3.30;0.63;;;;;;;;;;5055202;28;20491;-76
2023/10/16 14:14:18;;;;;;;3.77;0.40;;;;;;;;;;5037733;28;20412;-84
2023/10/16 14:16:46;;;;;;;2.53;0.47;;;;;;;;;;5055553;28;20916;-75
2023/10/16 14:19:13;;;;;;;2.50;0.30;;;;;;;;;;5055494;28;20434;-77
2023/10/16 14:21:40;;;;;;;3.50;0.30;;;;;;;;;;5055422;28;20458;-85
2023/10/16 14:24:07;;;;;;;2.60;0.20;;;;;;;;;;5055318;28;20416;-79
2023/10/16 14:26:34;;;;;;;1.67;0.30;;;;;;;;;;5054946;28;20487;-86
2023/10/16 14:29:00;;;;;;;3.83;0.50;;;;;;;;;;5055193;28;20416;-81
2023/10/16 14:31:28;;;;;;;4.30;0.20;;;;;;;;;;5055150;28;20463;-85
2023/10/16 14:33:54;;;;;;;1.27;0.23;;;;;;;;;;5055178;28;20416;-84
2023/10/16 14:36:24;;;;;;;2.10;0.20;;;;;;;;;;5055177;28;20735;-78
2023/10/16 14:38:50;;;;;;;2.20;0.30;;;;;;;;;;5037303;28;20499;-75
2023/10/16 14:41:17;;;;;;;2.20;0.40;;;;;;;;;;5054758;28;20422;-84
2023/10/16 14:43:45;;;;;;;8.53;0.30;;;;;;;;;;5054968;28;20418;-75
2023/10/16 14:46:11;;;;;;;3.50;0.30;;;;;;;;;;5055008;28;20408;-86
2023/10/16 14:48:38;;;;;;;4.43;0.20;;;;;;;;;;5054755;28;20464;-84
2023/10/16 14:51:09;;;;;;;1.60;0.20;;;;;;;;;;5054728;28;20776;-85
2023/10/16 14:53:39;;;;;;;3.50;0.43;;;;;;;;;;5054891;28;20990;-85
2023/10/16 14:56:06;;;;;;;3.03;1.00;;;;;;;;;;5054386;28;20926;-76
2023/10/16 14:58:34;;;;;;;2.40;0.20;;;;;;;;;;5054704;28;20443;-75
2023/10/16 15:01:09;;;;;;;4.40;0.40;;;;;;;;;;5054647;28;20404;-79
2023/10/16 15:03:38;;;;;;;4.13;0.40;;;;;;;;;;5054709;28;20416;-77
2023/10/16 15:06:04;;;;;;;3.83;0.50;;;;;;;;;;5054480;28;20916;-79
2023/10/16 15:08:31;;;;;;;3.73;0.30;;;;;;;;;;5054460;28;20822;-75
2023/10/16 15:10:58;;;;;;;0.80;0.37;;;;;;;;;;5054034;28;20410;-76
2023/10/16 15:13:27;;;;;;;4.53;0.50;;;;;;;;;;5054349;28;20465;-79
2023/10/16 15:15:55;;;;;;;3.73;0.60;;;;;;;;;;5053681;28;20411;-76
2023/10/16 15:18:21;;;;;;;6.40;1.03;;;;;;;;;;5054330;28;20406;-77
2023/10/16 15:20:47;;;;;;;2.20;0.50;;;;;;;;;;5036256;28;20553;-79
2023/10/16 15:23:13;;;;;;;4.70;1.70;;;;;;;;;;5054107;28;20967;-86
2023/10/16 15:25:40;;;;;;;1.63;0.30;;;;;;;;;;5036051;28;20886;-86
2023/10/16 15:28:06;;;;;;;2.30;0.40;;;;;;;;;;5054185;28;20459;-85
2023/10/16 15:30:33;;;;;;;1.97;0.20;;;;;;;;;;5054148;28;20433;-85
2023/10/16 15:33:00;;;;;;;5.13;0.77;;;;;;;;;;5053935;28;20855;-84
2023/10/16 15:35:28;;;;;;;4.10;0.50;;;;;;;;;;5054018;28;20410;-85
2023/10/16 15:37:55;;;;;;;2.50;0.30;;;;;;;;;;5053956;28;20489;-86
2023/10/16 15:40:21;;;;;;;3.43;0.60;;;;;;;;;;5053614;28;20498;-85
2023/10/16 15:42:52;;;;;;;2.37;0.30;;;;;;;;;;5053858;28;20410;-85
2023/10/16 15:45:18;;;;;;;2.40;0.20;;;;;;;;;;5053866;28;20411;-85
2023/10/16 15:47:46;;;;;;;1.87;0.53;;;;;;;;;;5053532;28;20464;-85
2023/10/16 15:50:12;;;;;;;1.20;0.30;;;;;;;;;;5053820;28;20445;-84
2023/10/16 15:52:39;;;;;;;2.27;0.47;;;;;;;;;;5035732;28;20478;-86
2023/10/16 15:55:05;;;;;;;2.63;0.30;;;;;;;;;;5053317;28;20417;-84
2023/10/16 15:57:34;;;;;;;2.50;0.33;;;;;;;;;;5053275;28;20420;-86
2023/10/16 16:00:00;;;;;;;2.83;0.53;;;;;;;;;;5053400;28;20403;-85
2023/10/16 16:02:28;;;;;;;3.60;0.77;;;;;;;;;;5053509;28;20452;-78
2023/10/16 16:04:54;;;;;;;11.17;0.70;;;;;;;;;;5053449;28;20484;-85
2023/10/16 16:07:21;;;;;;;2.27;0.40;;;;;;;;;;5061584;28;20520;-85
2023/10/16 16:09:47;;;;;;;4.90;0.40;;;;;;;;;;5058391;28;20413;-84
2023/10/16 16:12:14;;;;;;;3.13;0.30;;;;;;;;;;5052998;28;20470;-85
2023/10/16 16:14:42;;;;;;;3.03;0.30;;;;;;;;;;5053026;28;20403;-85
2023/10/16 16:17:11;;;;;;;1.37;0.77;;;;;;;;;;5052878;28;20417;-85
2023/10/16 16:19:39;;;;;;;3.33;0.50;;;;;;;;;;5052527;28;20425;-84
2023/10/16 16:22:05;;;;;;;1.60;0.40;;;;;;;;;;5051512;28;20421;-85
2023/10/16 16:24:32;;;;;;;2.60;0.67;;;;;;;;;;5052239;28;20853;-85
2023/10/16 16:26:58;;;;;;;2.73;0.50;;;;;;;;;;5052973;28;20492;-78
2023/10/16 16:29:23;;;;;;;1.83;0.33;;;;;;;;;;5052060;28;20736;-75
2023/10/16 16:31:49;;;;;;;2.40;0.60;;;;;;;;;;5056361;28;20464;-78
2023/10/16 16:34:15;;;;;;;1.23;0.30;;;;;;;;;;5067090;28;20202;-81
2023/10/16 16:36:42;;;;;;;5.40;0.73;;;;;;;;;;5071859;28;20819;-81
2023/10/16 16:39:12;;;;;;;4.87;0.70;;;;;;;;;;5072303;28;20440;-82
2023/10/16 16:41:38;;;;;;;3.50;0.93;;;;;;;;;;5072469;28;20428;-82
2023/10/16 16:44:05;;;;;;;2.90;0.70;;;;;;;;;;5072286;28;20740;-81
2023/10/16 16:46:30;;;;;;;2.57;0.50;;;;;;;;;;5072595;28;20408;-81
2023/10/16 16:49:00;;;;;;;4.77;0.93;;;;;;;;;;5072321;28;20867;-81
2023/10/16 16:51:26;;;;;;;3.03;0.60;;;;;;;;;;5072555;28;20460;-80
2023/10/16 16:53:52;;;;;;;3.60;0.70;;;;;;;;;;5072710;28;20416;-81
2023/10/16 16:56:18;;;;;;;1.80;0.53;;;;;;;;;;5072137;28;20450;-81
2023/10/16 16:58:44;;;;;;;5.97;0.73;;;;;;;;;;5053773;28;20899;-81
2023/10/16 17:01:10;;;;;;;1.97;0.63;;;;;;;;;;5071776;28;20495;-82